Greenwood, Nebraska
Current Conditions -  °F | °C
As of 3:54 AM on Sunday 26 Oct 2014 (Local Time) from KLNK Reporting Station
Clear Clear  
Wind Chill: 58°   Ceiling: Unl
Heat Index: 58°   Visibility: 10mi
Dew Point: 42°   Wind: 9mph
Humidity: 56%   Direction: 120°ESE
Pressure: 29.91"   Gusts: NA
Location:  40.96°N, 96.44°W
Report Text: KLNK 260854Z AUTO 12008KT 10SM CLR 14/06 A2991 RMK AO2 SLP121 T01440056 58025
Loading
Personal Weather Stations






























Interactive Weather Map
Tropical Storm Tracking
New forecast layout! Learn more

10-Day Weather Forecast

Advertisements
Track Severe Weather on mobile